sensor_id;sensor_type;location;lat;lon;timestamp;P1;durP1;ratioP1;P2;durP2;ratioP2
62951;SDS011;52163;52.212;-1.002;2022-12-18T00:01:28;12.30;;;7.80;;
62951;SDS011;52163;52.212;-1.002;2022-12-18T00:03:56;15.30;;;8.50;;
62951;SDS011;52163;52.212;-1.002;2022-12-18T00:06:23;16.70;;;8.90;;
62951;SDS011;52163;52.212;-1.002;2022-12-18T00:08:49;15.30;;;8.60;;
62951;SDS011;52163;52.212;-1.002;2022-12-18T00:11:17;17.20;;;8.50;;
62951;SDS011;52163;52.212;-1.002;2022-12-18T00:13:45;16.70;;;8.50;;
62951;SDS011;52163;52.212;-1.002;2022-12-18T00:16:12;15.60;;;9.00;;
62951;SDS011;52163;52.212;-1.002;2022-12-18T00:18:39;18.10;;;9.40;;
62951;SDS011;52163;52.212;-1.002;2022-12-18T00:21:06;26.20;;;12.20;;
62951;SDS011;52163;52.212;-1.002;2022-12-18T00:23:34;28.40;;;12.50;;
62951;SDS011;52163;52.212;-1.002;2022-12-18T00:26:01;20.50;;;11.80;;
62951;SDS011;52163;52.212;-1.002;2022-12-18T00:28:29;16.20;;;8.60;;
62951;SDS011;52163;52.212;-1.002;2022-12-18T00:31:01;17.70;;;9.40;;
62951;SDS011;52163;52.212;-1.002;2022-12-18T00:33:28;16.80;;;8.20;;
62951;SDS011;52163;52.212;-1.002;2022-12-18T00:35:53;19.40;;;9.50;;
62951;SDS011;52163;52.212;-1.002;2022-12-18T00:38:19;16.70;;;8.40;;
62951;SDS011;52163;52.212;-1.002;2022-12-18T00:40:44;16.10;;;8.90;;
62951;SDS011;52163;52.212;-1.002;2022-12-18T00:43:09;13.80;;;8.10;;
62951;SDS011;52163;52.212;-1.002;2022-12-18T00:45:35;15.20;;;8.60;;
62951;SDS011;52163;52.212;-1.002;2022-12-18T00:48:00;18.20;;;9.90;;
62951;SDS011;52163;52.212;-1.002;2022-12-18T00:50:26;28.50;;;12.20;;
62951;SDS011;52163;52.212;-1.002;2022-12-18T00:52:51;25.00;;;13.30;;
62951;SDS011;52163;52.212;-1.002;2022-12-18T00:55:18;22.00;;;11.80;;
62951;SDS011;52163;52.212;-1.002;2022-12-18T00:57:43;18.60;;;9.80;;
62951;SDS011;52163;52.212;-1.002;2022-12-18T01:00:11;20.00;;;10.10;;
62951;SDS011;52163;52.212;-1.002;2022-12-18T01:02:39;19.40;;;7.90;;
62951;SDS011;52163;52.212;-1.002;2022-12-18T01:05:05;18.20;;;9.50;;
62951;SDS011;52163;52.212;-1.002;2022-12-18T01:07:31;19.80;;;9.70;;
62951;SDS011;52163;52.212;-1.002;2022-12-18T01:09:56;19.00;;;9.30;;
62951;SDS011;52163;52.212;-1.002;2022-12-18T01:12:22;17.30;;;9.30;;
62951;SDS011;52163;52.212;-1.002;2022-12-18T01:14:47;25.20;;;12.10;;
62951;SDS011;52163;52.212;-1.002;2022-12-18T01:17:12;31.40;;;15.00;;
62951;SDS011;52163;52.212;-1.002;2022-12-18T01:19:38;30.90;;;14.40;;
62951;SDS011;52163;52.212;-1.002;2022-12-18T01:22:03;28.40;;;14.90;;
62951;SDS011;52163;52.212;-1.002;2022-12-18T01:24:29;25.10;;;13.30;;
62951;SDS011;52163;52.212;-1.002;2022-12-18T01:26:54;19.80;;;11.10;;
62951;SDS011;52163;52.212;-1.002;2022-12-18T01:29:19;20.80;;;11.10;;
62951;SDS011;52163;52.212;-1.002;2022-12-18T01:31:45;20.60;;;11.00;;
62951;SDS011;52163;52.212;-1.002;2022-12-18T01:34:10;25.50;;;11.30;;
62951;SDS011;52163;52.212;-1.002;2022-12-18T01:36:36;23.10;;;12.20;;
62951;SDS011;52163;52.212;-1.002;2022-12-18T01:39:05;17.10;;;10.10;;
62951;SDS011;52163;52.212;-1.002;2022-12-18T01:41:35;39.40;;;15.10;;
62951;SDS011;52163;52.212;-1.002;2022-12-18T01:50:00;20.80;;;12.10;;
62951;SDS011;52163;52.212;-1.002;2022-12-18T01:52:35;23.50;;;12.10;;
62951;SDS011;52163;52.212;-1.002;2022-12-18T01:55:03;21.70;;;11.80;;
62951;SDS011;52163;52.212;-1.002;2022-12-18T01:57:31;24.50;;;12.40;;
62951;SDS011;52163;52.212;-1.002;2022-12-18T01:59:59;29.10;;;14.40;;
62951;SDS011;52163;52.212;-1.002;2022-12-18T02:02:28;34.80;;;16.40;;
62951;SDS011;52163;52.212;-1.002;2022-12-18T02:04:55;53.20;;;18.70;;
62951;SDS011;52163;52.212;-1.002;2022-12-18T02:18:29;24.80;;;12.00;;
62951;SDS011;52163;52.212;-1.002;2022-12-18T02:28:39;47.10;;;20.20;;
62951;SDS011;52163;52.212;-1.002;2022-12-18T02:31:09;29.60;;;17.00;;
62951;SDS011;52163;52.212;-1.002;2022-12-18T02:33:40;28.00;;;13.20;;
62951;SDS011;52163;52.212;-1.002;2022-12-18T02:36:08;29.90;;;14.30;;
62951;SDS011;52163;52.212;-1.002;2022-12-18T02:38:35;28.00;;;12.40;;
62951;SDS011;52163;52.212;-1.002;2022-12-18T02:41:02;23.40;;;11.50;;
62951;SDS011;52163;52.212;-1.002;2022-12-18T02:43:29;26.80;;;13.30;;
62951;SDS011;52163;52.212;-1.002;2022-12-18T02:45:58;23.40;;;12.80;;
62951;SDS011;52163;52.212;-1.002;2022-12-18T02:48:27;49.70;;;19.40;;
62951;SDS011;52163;52.212;-1.002;2022-12-18T02:51:18;44.50;;;19.50;;
62951;SDS011;52163;52.212;-1.002;2022-12-18T02:56:33;26.00;;;14.00;;
62951;SDS011;52163;52.212;-1.002;2022-12-18T02:59:10;23.70;;;11.90;;
62951;SDS011;52163;52.212;-1.002;2022-12-18T03:01:51;24.40;;;12.60;;
62951;SDS011;52163;52.212;-1.002;2022-12-18T03:04:42;26.50;;;13.00;;
62951;SDS011;52163;52.212;-1.002;2022-12-18T03:07:16;25.20;;;13.20;;
62951;SDS011;52163;52.212;-1.002;2022-12-18T03:09:49;28.80;;;14.30;;
62951;SDS011;52163;52.212;-1.002;2022-12-18T03:12:19;42.90;;;19.70;;
62951;SDS011;52163;52.212;-1.002;2022-12-18T03:14:50;52.80;;;21.20;;
62951;SDS011;52163;52.212;-1.002;2022-12-18T03:17:20;35.00;;;16.20;;
62951;SDS011;52163;52.212;-1.002;2022-12-18T03:19:50;27.20;;;13.30;;
62951;SDS011;52163;52.212;-1.002;2022-12-18T03:22:18;26.50;;;13.00;;
62951;SDS011;52163;52.212;-1.002;2022-12-18T03:24:45;24.90;;;12.50;;
62951;SDS011;52163;52.212;-1.002;2022-12-18T03:27:13;25.70;;;12.90;;
62951;SDS011;52163;52.212;-1.002;2022-12-18T03:29:43;28.90;;;13.90;;
62951;SDS011;52163;52.212;-1.002;2022-12-18T03:32:33;32.10;;;15.70;;
62951;SDS011;52163;52.212;-1.002;2022-12-18T03:35:07;49.20;;;19.90;;
62951;SDS011;52163;52.212;-1.002;2022-12-18T03:37:37;54.40;;;24.00;;
62951;SDS011;52163;52.212;-1.002;2022-12-18T03:40:03;41.30;;;20.00;;
62951;SDS011;52163;52.212;-1.002;2022-12-18T03:43:07;30.00;;;15.00;;
62951;SDS011;52163;52.212;-1.002;2022-12-18T03:45:36;29.60;;;14.00;;
62951;SDS011;52163;52.212;-1.002;2022-12-18T03:48:27;22.00;;;10.80;;
62951;SDS011;52163;52.212;-1.002;2022-12-18T03:50:59;26.10;;;11.60;;
62951;SDS011;52163;52.212;-1.002;2022-12-18T03:56:08;25.30;;;13.30;;
62951;SDS011;52163;52.212;-1.002;2022-12-18T03:58:35;45.10;;;18.80;;
62951;SDS011;52163;52.212;-1.002;2022-12-18T04:01:03;48.50;;;19.70;;
62951;SDS011;52163;52.212;-1.002;2022-12-18T04:03:32;50.40;;;21.10;;
62951;SDS011;52163;52.212;-1.002;2022-12-18T04:06:00;29.50;;;13.70;;
62951;SDS011;52163;52.212;-1.002;2022-12-18T04:08:27;30.40;;;14.30;;
62951;SDS011;52163;52.212;-1.002;2022-12-18T04:10:54;30.90;;;15.00;;
62951;SDS011;52163;52.212;-1.002;2022-12-18T04:13:23;28.50;;;14.40;;
62951;SDS011;52163;52.212;-1.002;2022-12-18T04:15:49;27.10;;;13.40;;
62951;SDS011;52163;52.212;-1.002;2022-12-18T04:18:14;35.20;;;15.90;;
62951;SDS011;52163;52.212;-1.002;2022-12-18T04:20:40;44.80;;;18.40;;
62951;SDS011;52163;52.212;-1.002;2022-12-18T04:23:05;54.70;;;20.60;;
62951;SDS011;52163;52.212;-1.002;2022-12-18T04:25:31;34.60;;;17.90;;
62951;SDS011;52163;52.212;-1.002;2022-12-18T04:27:56;29.50;;;14.10;;
62951;SDS011;52163;52.212;-1.002;2022-12-18T04:30:21;26.70;;;13.10;;
62951;SDS011;52163;52.212;-1.002;2022-12-18T04:32:47;29.60;;;14.40;;
62951;SDS011;52163;52.212;-1.002;2022-12-18T04:35:12;25.60;;;13.30;;
62951;SDS011;52163;52.212;-1.002;2022-12-18T04:37:37;25.20;;;12.80;;
62951;SDS011;52163;52.212;-1.002;2022-12-18T04:40:03;34.60;;;14.80;;
62951;SDS011;52163;52.212;-1.002;2022-12-18T04:42:29;46.70;;;19.40;;
62951;SDS011;52163;52.212;-1.002;2022-12-18T04:44:54;45.10;;;19.40;;
62951;SDS011;52163;52.212;-1.002;2022-12-18T04:47:19;60.30;;;24.20;;
62951;SDS011;52163;52.212;-1.002;2022-12-18T04:49:45;39.00;;;18.30;;
62951;SDS011;52163;52.212;-1.002;2022-12-18T04:52:10;29.40;;;14.80;;
62951;SDS011;52163;52.212;-1.002;2022-12-18T04:54:35;32.80;;;15.00;;
62951;SDS011;52163;52.212;-1.002;2022-12-18T04:57:01;31.80;;;15.50;;
62951;SDS011;52163;52.212;-1.002;2022-12-18T04:59:26;34.70;;;15.10;;
62951;SDS011;52163;52.212;-1.002;2022-12-18T05:01:51;29.10;;;13.80;;
62951;SDS011;52163;52.212;-1.002;2022-12-18T05:04:17;27.50;;;14.60;;
62951;SDS011;52163;52.212;-1.002;2022-12-18T05:06:42;28.40;;;13.00;;
62951;SDS011;52163;52.212;-1.002;2022-12-18T05:09:08;42.50;;;16.50;;
62951;SDS011;52163;52.212;-1.002;2022-12-18T05:11:33;46.60;;;20.40;;
62951;SDS011;52163;52.212;-1.002;2022-12-18T05:13:58;51.20;;;22.00;;
62951;SDS011;52163;52.212;-1.002;2022-12-18T05:16:23;32.40;;;14.70;;
62951;SDS011;52163;52.212;-1.002;2022-12-18T05:18:49;24.80;;;11.60;;
62951;SDS011;52163;52.212;-1.002;2022-12-18T05:21:14;33.00;;;15.50;;
62951;SDS011;52163;52.212;-1.002;2022-12-18T05:23:40;31.30;;;14.50;;
62951;SDS011;52163;52.212;-1.002;2022-12-18T05:26:05;28.30;;;13.20;;
62951;SDS011;52163;52.212;-1.002;2022-12-18T05:28:33;23.10;;;12.00;;
62951;SDS011;52163;52.212;-1.002;2022-12-18T05:31:00;40.20;;;15.20;;
62951;SDS011;52163;52.212;-1.002;2022-12-18T05:33:28;26.40;;;11.50;;
62951;SDS011;52163;52.212;-1.002;2022-12-18T05:36:00;49.70;;;20.20;;
62951;SDS011;52163;52.212;-1.002;2022-12-18T05:38:27;39.00;;;17.60;;
62951;SDS011;52163;52.212;-1.002;2022-12-18T05:40:54;32.40;;;15.70;;
62951;SDS011;52163;52.212;-1.002;2022-12-18T05:43:20;33.60;;;15.90;;
62951;SDS011;52163;52.212;-1.002;2022-12-18T05:45:47;29.20;;;14.10;;
62951;SDS011;52163;52.212;-1.002;2022-12-18T05:48:13;32.60;;;14.80;;
62951;SDS011;52163;52.212;-1.002;2022-12-18T05:50:40;19.90;;;10.70;;
62951;SDS011;52163;52.212;-1.002;2022-12-18T05:53:07;36.50;;;15.40;;
62951;SDS011;52163;52.212;-1.002;2022-12-18T05:55:33;49.70;;;17.30;;
62951;SDS011;52163;52.212;-1.002;2022-12-18T05:58:00;52.50;;;18.30;;
62951;SDS011;52163;52.212;-1.002;2022-12-18T06:00:26;34.40;;;15.70;;
62951;SDS011;52163;52.212;-1.002;2022-12-18T06:02:52;28.20;;;13.40;;
62951;SDS011;52163;52.212;-1.002;2022-12-18T06:05:17;33.20;;;13.80;;
62951;SDS011;52163;52.212;-1.002;2022-12-18T06:07:43;31.00;;;14.20;;
62951;SDS011;52163;52.212;-1.002;2022-12-18T06:10:08;28.70;;;13.50;;
62951;SDS011;52163;52.212;-1.002;2022-12-18T06:12:34;30.60;;;13.60;;
62951;SDS011;52163;52.212;-1.002;2022-12-18T06:14:59;30.60;;;13.70;;
62951;SDS011;52163;52.212;-1.002;2022-12-18T06:17:32;35.70;;;16.00;;
62951;SDS011;52163;52.212;-1.002;2022-12-18T06:19:59;46.10;;;17.30;;
62951;SDS011;52163;52.212;-1.002;2022-12-18T06:22:26;58.40;;;20.00;;
62951;SDS011;52163;52.212;-1.002;2022-12-18T06:24:52;44.90;;;18.90;;
62951;SDS011;52163;52.212;-1.002;2022-12-18T06:27:17;30.30;;;14.50;;
62951;SDS011;52163;52.212;-1.002;2022-12-18T06:29:42;30.50;;;12.20;;
62951;SDS011;52163;52.212;-1.002;2022-12-18T06:32:08;27.50;;;12.50;;
62951;SDS011;52163;52.212;-1.002;2022-12-18T06:34:33;20.50;;;10.40;;
62951;SDS011;52163;52.212;-1.002;2022-12-18T06:36:59;16.20;;;6.80;;
62951;SDS011;52163;52.212;-1.002;2022-12-18T06:39:26;25.70;;;12.00;;
62951;SDS011;52163;52.212;-1.002;2022-12-18T06:41:52;39.50;;;16.60;;
62951;SDS011;52163;52.212;-1.002;2022-12-18T06:44:17;43.90;;;17.30;;
62951;SDS011;52163;52.212;-1.002;2022-12-18T06:46:43;26.50;;;13.20;;
62951;SDS011;52163;52.212;-1.002;2022-12-18T06:49:08;25.50;;;12.20;;
62951;SDS011;52163;52.212;-1.002;2022-12-18T06:51:34;22.00;;;10.90;;
62951;SDS011;52163;52.212;-1.002;2022-12-18T06:54:00;24.20;;;12.50;;
62951;SDS011;52163;52.212;-1.002;2022-12-18T06:56:25;18.10;;;9.00;;
62951;SDS011;52163;52.212;-1.002;2022-12-18T06:58:51;21.20;;;9.60;;
62951;SDS011;52163;52.212;-1.002;2022-12-18T07:01:16;34.80;;;14.60;;
62951;SDS011;52163;52.212;-1.002;2022-12-18T07:03:42;39.30;;;14.80;;
62951;SDS011;52163;52.212;-1.002;2022-12-18T07:06:15;27.00;;;12.50;;
62951;SDS011;52163;52.212;-1.002;2022-12-18T07:08:42;22.70;;;11.00;;
62951;SDS011;52163;52.212;-1.002;2022-12-18T07:11:08;19.70;;;10.40;;
62951;SDS011;52163;52.212;-1.002;2022-12-18T07:13:33;20.70;;;9.70;;
62951;SDS011;52163;52.212;-1.002;2022-12-18T07:16:03;20.60;;;10.50;;
62951;SDS011;52163;52.212;-1.002;2022-12-18T07:18:29;16.40;;;7.40;;
62951;SDS011;52163;52.212;-1.002;2022-12-18T07:20:55;27.20;;;12.40;;
62951;SDS011;52163;52.212;-1.002;2022-12-18T07:23:20;21.70;;;9.90;;
62951;SDS011;52163;52.212;-1.002;2022-12-18T07:25:45;31.40;;;12.40;;
62951;SDS011;52163;52.212;-1.002;2022-12-18T07:28:11;32.50;;;14.80;;
62951;SDS011;52163;52.212;-1.002;2022-12-18T07:30:37;22.70;;;11.60;;
62951;SDS011;52163;52.212;-1.002;2022-12-18T07:33:03;22.50;;;10.30;;
62951;SDS011;52163;52.212;-1.002;2022-12-18T07:35:29;15.00;;;7.00;;
62951;SDS011;52163;52.212;-1.002;2022-12-18T07:37:54;21.20;;;9.90;;
62951;SDS011;52163;52.212;-1.002;2022-12-18T07:40:20;18.20;;;9.40;;
62951;SDS011;52163;52.212;-1.002;2022-12-18T07:42:45;21.50;;;9.50;;
62951;SDS011;52163;52.212;-1.002;2022-12-18T07:45:10;36.30;;;14.60;;
62951;SDS011;52163;52.212;-1.002;2022-12-18T07:47:36;29.30;;;13.20;;
62951;SDS011;52163;52.212;-1.002;2022-12-18T07:50:02;25.90;;;11.10;;
62951;SDS011;52163;52.212;-1.002;2022-12-18T07:52:29;22.40;;;10.50;;
62951;SDS011;52163;52.212;-1.002;2022-12-18T07:54:54;24.80;;;11.50;;
62951;SDS011;52163;52.212;-1.002;2022-12-18T07:57:20;18.20;;;9.70;;
62951;SDS011;52163;52.212;-1.002;2022-12-18T07:59:45;20.20;;;10.50;;
62951;SDS011;52163;52.212;-1.002;2022-12-18T08:02:11;26.80;;;10.80;;
62951;SDS011;52163;52.212;-1.002;2022-12-18T08:04:36;34.10;;;13.00;;
62951;SDS011;52163;52.212;-1.002;2022-12-18T08:07:01;30.50;;;14.60;;
62951;SDS011;52163;52.212;-1.002;2022-12-18T08:09:27;26.10;;;12.00;;
62951;SDS011;52163;52.212;-1.002;2022-12-18T08:11:52;18.60;;;9.60;;
62951;SDS011;52163;52.212;-1.002;2022-12-18T08:14:17;20.50;;;9.60;;
62951;SDS011;52163;52.212;-1.002;2022-12-18T08:16:43;22.70;;;11.00;;
62951;SDS011;52163;52.212;-1.002;2022-12-18T08:19:08;15.10;;;7.80;;
62951;SDS011;52163;52.212;-1.002;2022-12-18T08:21:34;25.00;;;11.20;;
62951;SDS011;52163;52.212;-1.002;2022-12-18T08:24:00;27.10;;;11.60;;
62951;SDS011;52163;52.212;-1.002;2022-12-18T08:26:27;32.40;;;14.60;;
62951;SDS011;52163;52.212;-1.002;2022-12-18T08:28:54;19.70;;;10.60;;
62951;SDS011;52163;52.212;-1.002;2022-12-18T08:31:21;23.50;;;10.60;;
62951;SDS011;52163;52.212;-1.002;2022-12-18T08:33:48;21.10;;;10.70;;
62951;SDS011;52163;52.212;-1.002;2022-12-18T08:36:15;20.10;;;9.30;;
62951;SDS011;52163;52.212;-1.002;2022-12-18T08:38:41;21.50;;;10.70;;
62951;SDS011;52163;52.212;-1.002;2022-12-18T08:41:07;19.50;;;9.90;;
62951;SDS011;52163;52.212;-1.002;2022-12-18T08:43:35;21.20;;;9.80;;
62951;SDS011;52163;52.212;-1.002;2022-12-18T08:46:20;34.10;;;14.50;;
62951;SDS011;52163;52.212;-1.002;2022-12-18T08:48:47;32.70;;;13.70;;
62951;SDS011;52163;52.212;-1.002;2022-12-18T08:51:12;32.60;;;14.80;;
62951;SDS011;52163;52.212;-1.002;2022-12-18T08:53:38;20.90;;;11.60;;
62951;SDS011;52163;52.212;-1.002;2022-12-18T08:56:04;19.80;;;10.90;;
62951;SDS011;52163;52.212;-1.002;2022-12-18T08:58:30;20.10;;;11.00;;
62951;SDS011;52163;52.212;-1.002;2022-12-18T09:01:02;20.10;;;10.00;;
62951;SDS011;52163;52.212;-1.002;2022-12-18T09:03:29;23.00;;;10.60;;
62951;SDS011;52163;52.212;-1.002;2022-12-18T09:05:54;23.80;;;10.80;;
62951;SDS011;52163;52.212;-1.002;2022-12-18T09:08:20;25.10;;;11.90;;
62951;SDS011;52163;52.212;-1.002;2022-12-18T09:10:46;29.60;;;13.40;;
62951;SDS011;52163;52.212;-1.002;2022-12-18T09:13:13;29.60;;;14.00;;
62951;SDS011;52163;52.212;-1.002;2022-12-18T09:16:14;24.80;;;12.40;;
62951;SDS011;52163;52.212;-1.002;2022-12-18T09:18:32;24.80;;;11.50;;
62951;SDS011;52163;52.212;-1.002;2022-12-18T09:20:57;20.60;;;10.40;;
62951;SDS011;52163;52.212;-1.002;2022-12-18T09:23:23;21.00;;;10.90;;
62951;SDS011;52163;52.212;-1.002;2022-12-18T09:25:48;22.30;;;12.40;;
62951;SDS011;52163;52.212;-1.002;2022-12-18T09:28:14;20.80;;;10.80;;
62951;SDS011;52163;52.212;-1.002;2022-12-18T09:30:42;25.60;;;12.10;;
62951;SDS011;52163;52.212;-1.002;2022-12-18T09:33:10;31.80;;;13.50;;
62951;SDS011;52163;52.212;-1.002;2022-12-18T09:35:36;31.70;;;14.20;;
62951;SDS011;52163;52.212;-1.002;2022-12-18T09:38:02;21.40;;;10.80;;
62951;SDS011;52163;52.212;-1.002;2022-12-18T09:40:28;23.20;;;12.00;;
62951;SDS011;52163;52.212;-1.002;2022-12-18T09:43:00;23.70;;;11.90;;
62951;SDS011;52163;52.212;-1.002;2022-12-18T09:45:41;21.50;;;11.40;;
62951;SDS011;52163;52.212;-1.002;2022-12-18T09:48:19;21.90;;;11.70;;
62951;SDS011;52163;52.212;-1.002;2022-12-18T09:50:51;16.30;;;9.20;;
62951;SDS011;52163;52.212;-1.002;2022-12-18T09:53:21;28.30;;;12.10;;
62951;SDS011;52163;52.212;-1.002;2022-12-18T09:55:51;27.10;;;12.30;;
62951;SDS011;52163;52.212;-1.002;2022-12-18T10:01:00;22.60;;;11.80;;
62951;SDS011;52163;52.212;-1.002;2022-12-18T10:03:25;27.90;;;12.20;;
62951;SDS011;52163;52.212;-1.002;2022-12-18T10:06:08;22.30;;;11.80;;
62951;SDS011;52163;52.212;-1.002;2022-12-18T10:08:56;22.50;;;12.00;;
62951;SDS011;52163;52.212;-1.002;2022-12-18T10:22:11;20.40;;;11.90;;
62951;SDS011;52163;52.212;-1.002;2022-12-18T10:27:29;16.10;;;9.30;;
62951;SDS011;52163;52.212;-1.002;2022-12-18T10:29:56;20.00;;;10.90;;
62951;SDS011;52163;52.212;-1.002;2022-12-18T10:32:26;19.70;;;10.40;;
62951;SDS011;52163;52.212;-1.002;2022-12-18T10:34:56;20.20;;;11.30;;
62951;SDS011;52163;52.212;-1.002;2022-12-18T10:37:23;28.20;;;13.10;;
62951;SDS011;52163;52.212;-1.002;2022-12-18T10:42:34;21.00;;;11.00;;
62951;SDS011;52163;52.212;-1.002;2022-12-18T10:45:13;24.40;;;12.90;;
62951;SDS011;52163;52.212;-1.002;2022-12-18T10:47:46;19.00;;;11.90;;
62951;SDS011;52163;52.212;-1.002;2022-12-18T10:50:24;22.30;;;11.30;;
62951;SDS011;52163;52.212;-1.002;2022-12-18T10:53:03;15.00;;;8.40;;
62951;SDS011;52163;52.212;-1.002;2022-12-18T10:55:31;22.40;;;11.10;;
62951;SDS011;52163;52.212;-1.002;2022-12-18T11:06:10;24.10;;;12.60;;
62951;SDS011;52163;52.212;-1.002;2022-12-18T11:08:37;16.90;;;9.30;;
62951;SDS011;52163;52.212;-1.002;2022-12-18T11:11:04;17.30;;;7.60;;
62951;SDS011;52163;52.212;-1.002;2022-12-18T11:13:41;24.10;;;10.20;;
62951;SDS011;52163;52.212;-1.002;2022-12-18T11:16:20;20.50;;;10.60;;
62951;SDS011;52163;52.212;-1.002;2022-12-18T11:18:46;21.50;;;11.30;;
62951;SDS011;52163;52.212;-1.002;2022-12-18T11:21:11;19.70;;;10.50;;
62951;SDS011;52163;52.212;-1.002;2022-12-18T11:24:12;20.50;;;10.80;;
62951;SDS011;52163;52.212;-1.002;2022-12-18T11:26:42;23.00;;;11.30;;
62951;SDS011;52163;52.212;-1.002;2022-12-18T11:29:09;20.20;;;11.50;;
62951;SDS011;52163;52.212;-1.002;2022-12-18T11:31:40;18.80;;;10.70;;
62951;SDS011;52163;52.212;-1.002;2022-12-18T11:34:10;18.80;;;10.20;;
62951;SDS011;52163;52.212;-1.002;2022-12-18T11:36:44;22.30;;;11.90;;
62951;SDS011;52163;52.212;-1.002;2022-12-18T11:39:14;24.70;;;11.50;;
62951;SDS011;52163;52.212;-1.002;2022-12-18T11:41:47;24.00;;;10.70;;
62951;SDS011;52163;52.212;-1.002;2022-12-18T11:44:54;23.60;;;12.10;;
62951;SDS011;52163;52.212;-1.002;2022-12-18T11:50:24;22.70;;;11.10;;
62951;SDS011;52163;52.212;-1.002;2022-12-18T11:52:53;20.60;;;10.60;;
62951;SDS011;52163;52.212;-1.002;2022-12-18T12:01:05;27.80;;;11.40;;
62951;SDS011;52163;52.212;-1.002;2022-12-18T12:03:59;23.70;;;13.10;;
62951;SDS011;52163;52.212;-1.002;2022-12-18T12:17:33;20.80;;;11.20;;
62951;SDS011;52163;52.212;-1.002;2022-12-18T12:20:22;18.50;;;10.50;;
62951;SDS011;52163;52.212;-1.002;2022-12-18T12:25:44;21.60;;;11.30;;
62951;SDS011;52163;52.212;-1.002;2022-12-18T12:38:59;18.80;;;10.70;;
62951;SDS011;52163;52.212;-1.002;2022-12-18T12:41:31;18.10;;;10.50;;
62951;SDS011;52163;52.212;-1.002;2022-12-18T12:44:19;20.00;;;11.10;;
62951;SDS011;52163;52.212;-1.002;2022-12-18T12:46:49;21.70;;;11.70;;
62951;SDS011;52163;52.212;-1.002;2022-12-18T12:49:20;21.20;;;11.40;;
62951;SDS011;52163;52.212;-1.002;2022-12-18T12:52:08;19.20;;;10.60;;
62951;SDS011;52163;52.212;-1.002;2022-12-18T12:54:38;19.80;;;10.90;;
62951;SDS011;52163;52.212;-1.002;2022-12-18T12:57:12;20.20;;;11.00;;
62951;SDS011;52163;52.212;-1.002;2022-12-18T13:00:00;21.70;;;11.30;;
62951;SDS011;52163;52.212;-1.002;2022-12-18T13:05:16;19.70;;;11.00;;
62951;SDS011;52163;52.212;-1.002;2022-12-18T13:07:51;17.40;;;10.10;;
62951;SDS011;52163;52.212;-1.002;2022-12-18T13:10:23;22.80;;;11.00;;
62951;SDS011;52163;52.212;-1.002;2022-12-18T13:12:52;23.00;;;13.20;;
62951;SDS011;52163;52.212;-1.002;2022-12-18T13:18:01;21.50;;;12.90;;
62951;SDS011;52163;52.212;-1.002;2022-12-18T13:20:32;22.20;;;12.10;;
62951;SDS011;52163;52.212;-1.002;2022-12-18T13:23:00;21.90;;;13.20;;
62951;SDS011;52163;52.212;-1.002;2022-12-18T13:25:30;20.80;;;11.80;;
62951;SDS011;52163;52.212;-1.002;2022-12-18T13:35:40;24.40;;;12.70;;
62951;SDS011;52163;52.212;-1.002;2022-12-18T13:40:56;23.00;;;12.80;;
62951;SDS011;52163;52.212;-1.002;2022-12-18T13:43:27;23.40;;;12.50;;
62951;SDS011;52163;52.212;-1.002;2022-12-18T13:46:05;19.10;;;12.60;;
62951;SDS011;52163;52.212;-1.002;2022-12-18T13:51:18;21.20;;;12.90;;
62951;SDS011;52163;52.212;-1.002;2022-12-18T13:56:24;25.20;;;12.50;;
62951;SDS011;52163;52.212;-1.002;2022-12-18T13:59:05;27.10;;;13.60;;
62951;SDS011;52163;52.212;-1.002;2022-12-18T14:01:44;21.20;;;12.50;;
62951;SDS011;52163;52.212;-1.002;2022-12-18T14:04:16;19.50;;;12.20;;
62951;SDS011;52163;52.212;-1.002;2022-12-18T14:06:46;24.00;;;12.80;;
62951;SDS011;52163;52.212;-1.002;2022-12-18T14:09:13;24.10;;;12.40;;
62951;SDS011;52163;52.212;-1.002;2022-12-18T14:11:40;24.90;;;13.40;;
62951;SDS011;52163;52.212;-1.002;2022-12-18T14:14:13;21.80;;;12.70;;
62951;SDS011;52163;52.212;-1.002;2022-12-18T14:16:41;25.30;;;13.40;;
62951;SDS011;52163;52.212;-1.002;2022-12-18T14:19:08;19.70;;;12.20;;
62951;SDS011;52163;52.212;-1.002;2022-12-18T14:21:39;20.60;;;12.50;;
62951;SDS011;52163;52.212;-1.002;2022-12-18T14:26:33;20.20;;;11.80;;
62951;SDS011;52163;52.212;-1.002;2022-12-18T14:29:22;17.70;;;10.70;;
62951;SDS011;52163;52.212;-1.002;2022-12-18T14:32:03;23.00;;;12.50;;
62951;SDS011;52163;52.212;-1.002;2022-12-18T14:34:31;26.80;;;13.70;;
62951;SDS011;52163;52.212;-1.002;2022-12-18T14:36:56;23.90;;;11.90;;
62951;SDS011;52163;52.212;-1.002;2022-12-18T14:39:21;21.00;;;12.70;;
62951;SDS011;52163;52.212;-1.002;2022-12-18T14:41:49;17.60;;;11.30;;
62951;SDS011;52163;52.212;-1.002;2022-12-18T14:44:14;19.00;;;11.90;;
62951;SDS011;52163;52.212;-1.002;2022-12-18T14:46:41;19.30;;;11.30;;
62951;SDS011;52163;52.212;-1.002;2022-12-18T14:52:15;16.10;;;10.00;;
62951;SDS011;52163;52.212;-1.002;2022-12-18T14:54:48;21.00;;;11.50;;
62951;SDS011;52163;52.212;-1.002;2022-12-18T14:57:23;22.00;;;11.80;;
62951;SDS011;52163;52.212;-1.002;2022-12-18T14:59:51;17.90;;;11.10;;
62951;SDS011;52163;52.212;-1.002;2022-12-18T15:02:25;14.40;;;9.70;;
62951;SDS011;52163;52.212;-1.002;2022-12-18T15:05:03;13.80;;;8.50;;
62951;SDS011;52163;52.212;-1.002;2022-12-18T15:07:41;13.50;;;8.80;;
62951;SDS011;52163;52.212;-1.002;2022-12-18T15:20:42;15.40;;;9.30;;
62951;SDS011;52163;52.212;-1.002;2022-12-18T15:23:31;13.10;;;7.90;;
62951;SDS011;52163;52.212;-1.002;2022-12-18T15:26:08;11.90;;;7.20;;
62951;SDS011;52163;52.212;-1.002;2022-12-18T15:33:38;13.00;;;7.10;;
62951;SDS011;52163;52.212;-1.002;2022-12-18T15:36:10;14.60;;;9.30;;
62951;SDS011;52163;52.212;-1.002;2022-12-18T15:38:37;15.40;;;8.80;;
62951;SDS011;52163;52.212;-1.002;2022-12-18T15:41:03;12.00;;;7.60;;
62951;SDS011;52163;52.212;-1.002;2022-12-18T15:43:38;9.30;;;6.20;;
62951;SDS011;52163;52.212;-1.002;2022-12-18T15:46:08;8.00;;;5.70;;
62951;SDS011;52163;52.212;-1.002;2022-12-18T15:48:41;9.10;;;5.60;;
62951;SDS011;52163;52.212;-1.002;2022-12-18T15:51:13;6.80;;;4.60;;
62951;SDS011;52163;52.212;-1.002;2022-12-18T15:53:41;5.80;;;4.00;;
62951;SDS011;52163;52.212;-1.002;2022-12-18T15:56:10;8.90;;;4.80;;
62951;SDS011;52163;52.212;-1.002;2022-12-18T15:58:55;10.20;;;6.10;;
62951;SDS011;52163;52.212;-1.002;2022-12-18T16:01:22;10.70;;;5.90;;
62951;SDS011;52163;52.212;-1.002;2022-12-18T16:03:49;7.80;;;5.40;;
62951;SDS011;52163;52.212;-1.002;2022-12-18T16:06:14;9.60;;;5.80;;
62951;SDS011;52163;52.212;-1.002;2022-12-18T16:08:40;7.10;;;4.80;;
62951;SDS011;52163;52.212;-1.002;2022-12-18T16:11:05;6.60;;;4.10;;
62951;SDS011;52163;52.212;-1.002;2022-12-18T16:13:31;5.70;;;3.70;;
62951;SDS011;52163;52.212;-1.002;2022-12-18T16:15:56;5.20;;;3.50;;
62951;SDS011;52163;52.212;-1.002;2022-12-18T16:18:22;7.30;;;4.70;;
62951;SDS011;52163;52.212;-1.002;2022-12-18T16:20:47;7.10;;;5.40;;
62951;SDS011;52163;52.212;-1.002;2022-12-18T16:23:12;8.90;;;5.80;;
62951;SDS011;52163;52.212;-1.002;2022-12-18T16:25:38;6.60;;;4.50;;
62951;SDS011;52163;52.212;-1.002;2022-12-18T16:28:03;6.70;;;4.90;;
62951;SDS011;52163;52.212;-1.002;2022-12-18T16:30:29;6.90;;;4.30;;
62951;SDS011;52163;52.212;-1.002;2022-12-18T16:32:56;5.60;;;3.60;;
62951;SDS011;52163;52.212;-1.002;2022-12-18T16:35:23;6.10;;;4.20;;
62951;SDS011;52163;52.212;-1.002;2022-12-18T16:37:49;6.60;;;3.70;;